Time;durP1;ratioP1;P1;durP2;ratioP2;P2;SDS_P1;SDS_P2;PMS_P1;PMS_P2;Temp;Humidity;BMP_temperature;BMP_pressure;BME280_temperature;BME280_humidity;BME280_pressure;Samples;Min_cycle;Max_cycle;Signal;HPM_P1;HPM_P2
2021/05/22 00:00:33;;;;;;;5.38;1.30;;;10.90;99.90;;;;;;5054119;28;20033;-86
2021/05/22 00:03:05;;;;;;;4.60;1.08;;;10.90;99.90;;;;;;5064804;28;20021;-86
2021/05/22 00:05:37;;;;;;;3.97;1.25;;;10.90;99.90;;;;;;5067344;28;20233;-87
2021/05/22 00:08:12;;;;;;;7.13;1.33;;;10.90;99.90;;;;;;5053480;28;20119;-91
2021/05/22 00:10:44;;;;;;;4.72;1.40;;;11.00;99.90;;;;;;5064096;28;20051;-90
2021/05/22 00:13:15;;;;;;;5.50;1.33;;;11.00;99.90;;;;;;5056547;28;20037;-87
2021/05/22 00:15:44;;;;;;;4.57;1.30;;;11.00;99.90;;;;;;5068291;28;20464;-86
2021/05/22 00:18:12;;;;;;;6.68;1.48;;;10.90;99.90;;;;;;5057028;28;20442;-89
2021/05/22 00:20:41;;;;;;;3.55;1.42;;;10.90;99.90;;;;;;5060740;28;20107;-87
2021/05/22 00:23:11;;;;;;;4.18;1.30;;;11.00;99.90;;;;;;5068020;28;20037;-89
2021/05/22 00:25:38;;;;;;;9.18;2.20;;;11.00;99.90;;;;;;5049759;28;20029;-90
2021/05/22 00:28:07;;;;;;;5.35;1.35;;;11.10;99.90;;;;;;5066179;28;20029;-85
2021/05/22 00:30:32;;;;;;;5.22;1.60;;;11.10;99.90;;;;;;5066544;28;20021;-88
2021/05/22 00:32:58;;;;;;;7.25;1.45;;;11.10;99.90;;;;;;5067092;28;20032;-90
2021/05/22 00:35:24;;;;;;;8.20;1.23;;;11.10;99.90;;;;;;5051239;28;20389;-88
2021/05/22 00:37:50;;;;;;;11.48;1.52;;;11.10;99.90;;;;;;5060898;28;20031;-92
2021/05/22 00:40:23;;;;;;;7.97;1.73;;;11.10;99.90;;;;;;5051561;28;20053;-90
2021/05/22 00:42:49;;;;;;;5.50;1.27;;;11.10;99.90;;;;;;5056415;28;20025;-85
2021/05/22 00:45:23;;;;;;;5.15;1.15;;;11.10;99.90;;;;;;5071653;28;20626;-89
2021/05/22 00:47:51;;;;;;;6.68;1.40;;;11.10;99.90;;;;;;5067930;28;20025;-88
2021/05/22 00:50:31;;;;;;;5.85;1.30;;;11.10;99.90;;;;;;5055533;28;20384;-88
2021/05/22 00:53:00;;;;;;;6.15;1.25;;;11.10;99.90;;;;;;5054320;28;20036;-87
2021/05/22 00:55:27;;;;;;;6.95;1.45;;;11.10;99.90;;;;;;5059446;28;20052;-90
2021/05/22 00:57:54;;;;;;;7.40;1.58;;;11.10;99.90;;;;;;5072816;28;20063;-88
2021/05/22 01:00:34;;;;;;;6.85;1.40;;;11.10;99.90;;;;;;5057817;28;20082;-88
2021/05/22 01:03:03;;;;;;;8.82;1.52;;;11.20;99.90;;;;;;5056609;28;20025;-93
2021/05/22 01:05:40;;;;;;;4.70;1.35;;;11.10;99.90;;;;;;5056449;28;20101;-91
2021/05/22 01:08:23;;;;;;;5.50;1.33;;;11.10;99.90;;;;;;5068954;28;20056;-91
2021/05/22 01:11:05;;;;;;;4.47;1.30;;;11.20;99.90;;;;;;5058315;28;20025;-93
2021/05/22 01:13:38;;;;;;;10.27;1.88;;;11.20;99.90;;;;;;5066982;28;20485;-88
2021/05/22 01:16:06;;;;;;;10.20;1.70;;;11.10;99.90;;;;;;5069305;28;20375;-89
2021/05/22 01:18:33;;;;;;;4.43;1.00;;;11.20;99.90;;;;;;5056497;28;20075;-91
2021/05/22 01:21:05;;;;;;;6.40;1.40;;;11.20;99.90;;;;;;5054588;28;20473;-89
2021/05/22 01:23:40;;;;;;;4.50;1.45;;;11.20;99.90;;;;;;5054908;28;20045;-91
2021/05/22 01:26:11;;;;;;;5.72;1.65;;;11.20;99.90;;;;;;5055277;28;20354;-91
2021/05/22 01:28:37;;;;;;;4.85;1.20;;;11.20;99.90;;;;;;5054962;28;20029;-90
2021/05/22 01:31:14;;;;;;;8.20;1.20;;;11.20;99.90;;;;;;5058208;28;20050;-89
2021/05/22 01:33:46;;;;;;;6.10;1.30;;;11.20;99.90;;;;;;5058453;28;20171;-89
2021/05/22 01:36:15;;;;;;;4.70;1.17;;;11.20;99.90;;;;;;5063599;28;20101;-91
2021/05/22 01:38:41;;;;;;;6.30;1.10;;;11.20;99.90;;;;;;5058141;28;20099;-90
2021/05/22 01:41:12;;;;;;;6.93;1.10;;;11.10;99.90;;;;;;5059129;28;20135;-92
2021/05/22 01:43:42;;;;;;;6.53;1.08;;;11.10;99.90;;;;;;5066396;28;20364;-90
2021/05/22 01:46:10;;;;;;;7.25;1.45;;;11.10;99.90;;;;;;5063312;28;20032;-88
2021/05/22 01:48:37;;;;;;;6.10;1.40;;;11.10;99.90;;;;;;5070180;28;20475;-90
2021/05/22 01:51:17;;;;;;;6.97;1.08;;;11.00;99.90;;;;;;5067282;28;20036;-91
2021/05/22 01:53:44;;;;;;;4.32;1.30;;;11.10;99.90;;;;;;5062739;28;20020;-88
2021/05/22 01:56:11;;;;;;;5.25;1.17;;;11.10;99.90;;;;;;5068092;28;20094;-87
2021/05/22 01:58:40;;;;;;;8.65;1.33;;;11.00;99.90;;;;;;5072416;28;20068;-90
2021/05/22 02:01:11;;;;;;;7.47;2.25;;;11.10;99.90;;;;;;5059302;28;20055;-90
2021/05/22 02:03:41;;;;;;;6.38;1.30;;;11.10;99.90;;;;;;5063138;28;20108;-91
2021/05/22 02:06:29;;;;;;;3.92;1.08;;;11.10;99.90;;;;;;5067091;28;20035;-90
2021/05/22 02:08:58;;;;;;;6.15;1.48;;;11.10;99.90;;;;;;5057886;28;20028;-92
2021/05/22 02:11:32;;;;;;;4.63;1.02;;;11.00;99.90;;;;;;5065836;28;20017;-92
2021/05/22 02:14:01;;;;;;;6.07;1.08;;;11.00;99.90;;;;;;5066904;28;20040;-96
2021/05/22 02:16:33;;;;;;;4.05;1.35;;;10.90;99.90;;;;;;5058460;28;20084;-91
2021/05/22 02:19:10;;;;;;;9.40;1.25;;;11.00;99.90;;;;;;5070391;28;20014;-91
2021/05/22 02:21:44;;;;;;;5.15;1.25;;;10.90;99.90;;;;;;5063968;28;20487;-90
2021/05/22 02:24:23;;;;;;;4.05;1.20;;;11.00;99.90;;;;;;5073911;28;20132;-91
2021/05/22 02:26:50;;;;;;;3.85;1.10;;;11.00;99.90;;;;;;5070572;28;20063;-92
2021/05/22 02:29:23;;;;;;;7.22;1.10;;;11.00;99.90;;;;;;5054439;28;20029;-94
2021/05/22 02:31:54;;;;;;;7.38;1.25;;;11.00;99.90;;;;;;5066894;28;20376;-90
2021/05/22 02:34:31;;;;;;;4.60;1.38;;;10.90;99.90;;;;;;5058225;28;20119;-92
2021/05/22 02:36:59;;;;;;;3.85;1.13;;;10.90;99.90;;;;;;5053756;28;20078;-88
2021/05/22 02:39:27;;;;;;;5.82;1.25;;;10.90;99.90;;;;;;5053940;28;20036;-87
2021/05/22 02:41:59;;;;;;;2.75;0.98;;;10.90;99.90;;;;;;5065767;28;20051;-90
2021/05/22 02:44:27;;;;;;;5.28;1.02;;;10.90;99.90;;;;;;5073455;28;20036;-90
2021/05/22 02:46:55;;;;;;;7.43;1.60;;;10.90;99.90;;;;;;5054396;28;20017;-88
2021/05/22 02:49:27;;;;;;;4.85;1.25;;;10.90;99.90;;;;;;5061788;28;20024;-88
2021/05/22 02:51:57;;;;;;;5.35;1.73;;;10.90;99.90;;;;;;5073138;28;20025;-90
2021/05/22 02:54:29;;;;;;;4.70;1.00;;;10.90;99.90;;;;;;5073540;28;20035;-90
2021/05/22 02:56:57;;;;;;;3.42;0.90;;;10.90;99.90;;;;;;5069926;28;20029;-91
2021/05/22 02:59:26;;;;;;;4.95;0.70;;;10.90;99.90;;;;;;5061146;28;20082;-93
2021/05/22 03:01:57;;;;;;;5.85;1.00;;;10.90;99.90;;;;;;5075016;28;20067;-89
2021/05/22 03:04:36;;;;;;;5.95;1.48;;;10.90;99.90;;;;;;5073574;28;20075;-87
2021/05/22 03:07:03;;;;;;;3.65;1.00;;;10.90;99.90;;;;;;5072950;28;20135;-89
2021/05/22 03:09:29;;;;;;;5.28;1.00;;;10.90;99.90;;;;;;5065022;28;20025;-90
2021/05/22 03:12:01;;;;;;;5.32;0.82;;;10.80;99.90;;;;;;5052653;28;20024;-89
2021/05/22 03:14:30;;;;;;;3.65;0.93;;;10.70;99.90;;;;;;5053257;28;20021;-90
2021/05/22 03:17:05;;;;;;;6.78;1.27;;;10.70;99.90;;;;;;5053045;28;20021;-88
2021/05/22 03:19:37;;;;;;;9.68;1.15;;;10.70;99.90;;;;;;5053330;28;20046;-88
2021/05/22 03:22:06;;;;;;;5.07;1.08;;;10.70;99.90;;;;;;5054774;28;20020;-89
2021/05/22 03:24:35;;;;;;;3.88;0.90;;;10.70;99.90;;;;;;5054095;28;20029;-89
2021/05/22 03:27:04;;;;;;;4.97;0.82;;;10.80;99.90;;;;;;5072911;28;20029;-94
2021/05/22 03:29:33;;;;;;;4.35;1.00;;;10.80;99.90;;;;;;5073620;28;20021;-94
2021/05/22 03:32:08;;;;;;;6.05;1.08;;;10.90;99.90;;;;;;5061551;28;20032;-93
2021/05/22 03:34:37;;;;;;;7.18;1.65;;;10.90;99.90;;;;;;5071632;28;20028;-94
2021/05/22 03:37:03;;;;;;;5.28;0.68;;;10.90;99.90;;;;;;5067591;28;20025;-89
2021/05/22 03:39:38;;;;;;;5.10;0.82;;;10.90;99.90;;;;;;5052884;28;20025;-91
2021/05/22 03:42:08;;;;;;;6.00;0.98;;;11.00;99.90;;;;;;5063873;28;20028;-89
2021/05/22 03:44:36;;;;;;;3.35;0.80;;;11.00;99.90;;;;;;5072556;28;20121;-89
2021/05/22 03:47:07;;;;;;;5.53;1.42;;;11.00;99.90;;;;;;5073478;28;20151;-93
2021/05/22 03:49:36;;;;;;;2.70;0.82;;;11.00;99.90;;;;;;5073076;28;20116;-90
2021/05/22 03:52:02;;;;;;;3.75;0.80;;;11.00;99.90;;;;;;5072469;28;20033;-89
2021/05/22 03:54:28;;;;;;;6.07;0.80;;;11.00;99.90;;;;;;5073227;28;20037;-90
2021/05/22 03:56:56;;;;;;;3.65;0.82;;;11.10;99.90;;;;;;5068915;28;20025;-88
2021/05/22 03:59:25;;;;;;;4.70;0.95;;;11.10;99.90;;;;;;5052319;28;20029;-89
2021/05/22 04:01:51;;;;;;;3.85;0.98;;;11.10;99.90;;;;;;5052536;28;20063;-90
2021/05/22 04:04:20;;;;;;;3.30;0.73;;;11.10;99.90;;;;;;5053539;28;20033;-93
2021/05/22 04:06:45;;;;;;;3.67;0.80;;;11.10;99.90;;;;;;5071897;28;20102;-94
2021/05/22 04:09:11;;;;;;;2.78;0.65;;;11.10;99.90;;;;;;5065826;28;20021;-91
2021/05/22 04:11:43;;;;;;;5.22;1.08;;;11.10;99.90;;;;;;5052825;28;20453;-90
2021/05/22 04:14:09;;;;;;;5.05;0.90;;;11.10;99.90;;;;;;5066741;28;20028;-89
2021/05/22 04:16:38;;;;;;;4.53;1.08;;;11.10;99.90;;;;;;5057170;28;20029;-90
2021/05/22 04:19:06;;;;;;;2.70;0.90;;;11.20;99.90;;;;;;5067379;28;20036;-90
2021/05/22 04:21:38;;;;;;;6.32;0.95;;;11.20;99.90;;;;;;5054048;28;20021;-90
2021/05/22 04:24:13;;;;;;;4.78;1.10;;;11.20;99.90;;;;;;5054415;28;20043;-92
2021/05/22 04:26:42;;;;;;;4.53;1.02;;;11.20;99.90;;;;;;5055945;28;20091;-90
2021/05/22 04:29:08;;;;;;;5.55;0.90;;;11.20;99.90;;;;;;5056014;28;20024;-94
2021/05/22 04:31:39;;;;;;;4.00;1.23;;;11.10;99.90;;;;;;5055896;28;20028;-89
2021/05/22 04:34:04;;;;;;;7.45;1.10;;;11.10;99.90;;;;;;5069974;28;20025;-90
2021/05/22 04:36:30;;;;;;;4.90;0.82;;;11.10;99.90;;;;;;5077297;28;20415;-95
2021/05/22 04:38:56;;;;;;;5.32;1.13;;;11.00;99.90;;;;;;5071506;28;20018;-88
2021/05/22 04:41:22;;;;;;;6.65;1.33;;;10.90;99.90;;;;;;5065079;28;20100;-91
2021/05/22 04:43:51;;;;;;;5.65;1.10;;;10.80;99.90;;;;;;5075773;28;20122;-92
2021/05/22 04:46:20;;;;;;;8.13;1.10;;;10.70;99.90;;;;;;5061446;28;20139;-89
2021/05/22 04:48:53;;;;;;;5.50;1.95;;;10.50;99.90;;;;;;5074975;28;20388;-89
2021/05/22 04:51:24;;;;;;;6.43;1.33;;;10.40;99.90;;;;;;5077080;28;20020;-89
2021/05/22 04:53:54;;;;;;;5.70;1.30;;;10.30;99.90;;;;;;5075771;28;20115;-90
2021/05/22 04:56:20;;;;;;;7.95;1.50;;;10.20;99.90;;;;;;5075793;28;20491;-90
2021/05/22 04:58:49;;;;;;;8.18;1.80;;;10.10;99.90;;;;;;5076931;28;20107;-88
2021/05/22 05:01:23;;;;;;;6.07;1.58;;;9.90;99.90;;;;;;5075645;28;20031;-90
2021/05/22 05:03:55;;;;;;;3.53;1.20;;;9.80;99.90;;;;;;5064432;28;20465;-90
2021/05/22 05:06:26;;;;;;;7.80;1.60;;;9.70;99.90;;;;;;5055235;28;20021;-88
2021/05/22 05:09:00;;;;;;;4.85;1.30;;;9.70;99.90;;;;;;5055167;28;20190;-88
2021/05/22 05:11:27;;;;;;;10.55;1.88;;;9.60;99.90;;;;;;5054765;28;20044;-88
2021/05/22 05:13:59;;;;;;;7.25;1.55;;;9.60;99.90;;;;;;5055108;28;20032;-93
2021/05/22 05:16:31;;;;;;;8.98;2.00;;;9.60;99.90;;;;;;5055576;28;20028;-91
2021/05/22 05:19:11;;;;;;;10.77;1.95;;;9.60;99.90;;;;;;5069921;28;20032;-91
2021/05/22 05:21:45;;;;;;;9.75;1.92;;;9.60;99.90;;;;;;5055383;28;20021;-89
2021/05/22 05:24:17;;;;;;;6.47;1.67;;;9.60;99.90;;;;;;5069777;28;20035;-87
2021/05/22 05:26:45;;;;;;;8.13;2.83;;;9.60;99.90;;;;;;5075434;28;20039;-91
2021/05/22 05:29:17;;;;;;;7.55;1.92;;;9.60;99.90;;;;;;5068353;28;20384;-91
2021/05/22 05:31:44;;;;;;;6.32;1.35;;;9.50;99.90;;;;;;5055068;28;20027;-90
2021/05/22 05:34:15;;;;;;;8.07;2.20;;;9.50;99.90;;;;;;5053923;28;20138;-91
2021/05/22 05:36:48;;;;;;;8.40;1.55;;;9.50;99.90;;;;;;5071098;28;20044;-91
2021/05/22 05:39:17;;;;;;;7.22;1.58;;;9.50;99.90;;;;;;5061997;28;20047;-88
2021/05/22 05:41:43;;;;;;;5.72;1.67;;;9.50;99.90;;;;;;5063863;28;20024;-89
2021/05/22 05:44:10;;;;;;;6.38;2.08;;;9.50;99.90;;;;;;5054405;28;20067;-90
2021/05/22 05:46:36;;;;;;;6.32;1.95;;;9.50;99.90;;;;;;5070880;28;20021;-90
2021/05/22 05:49:02;;;;;;;9.02;1.73;;;9.50;99.90;;;;;;5054423;28;20464;-89
2021/05/22 05:51:28;;;;;;;6.13;1.55;;;9.50;99.90;;;;;;5062896;28;20040;-89
2021/05/22 05:53:54;;;;;;;12.27;2.03;;;9.50;99.90;;;;;;5063290;28;20025;-89
2021/05/22 05:56:25;;;;;;;7.00;2.35;;;9.50;99.90;;;;;;5056596;28;20116;-89
2021/05/22 05:58:59;;;;;;;7.20;1.65;;;9.50;99.90;;;;;;5054679;28;20024;-91
2021/05/22 06:01:26;;;;;;;6.75;1.60;;;9.50;99.90;;;;;;5063836;28;20040;-90
2021/05/22 06:03:52;;;;;;;10.10;2.55;;;9.50;99.90;;;;;;5074216;28;20031;-89
2021/05/22 06:06:22;;;;;;;7.35;1.27;;;9.50;99.90;;;;;;5074733;28;20111;-90
2021/05/22 06:08:55;;;;;;;7.50;1.98;;;9.50;99.90;;;;;;5073799;28;20036;-89
2021/05/22 06:11:29;;;;;;;6.90;1.77;;;9.50;99.90;;;;;;5066572;28;20076;-91
2021/05/22 06:13:56;;;;;;;8.68;2.55;;;9.50;99.90;;;;;;5054424;28;20025;-90
2021/05/22 06:16:32;;;;;;;10.45;2.08;;;9.50;99.90;;;;;;5037242;28;20021;-90
2021/05/22 06:19:00;;;;;;;10.25;1.75;;;9.60;99.90;;;;;;5059091;28;20028;-91
2021/05/22 06:21:35;;;;;;;5.68;1.77;;;9.60;99.90;;;;;;5066759;28;20028;-90
2021/05/22 06:24:02;;;;;;;6.10;1.48;;;9.60;99.90;;;;;;5055263;28;20535;-93
2021/05/22 06:26:28;;;;;;;7.88;2.00;;;9.60;99.90;;;;;;5070805;28;20115;-93
2021/05/22 06:28:54;;;;;;;7.10;2.25;;;9.60;99.90;;;;;;5073591;28;20544;-92
2021/05/22 06:31:20;;;;;;;11.80;2.67;;;9.60;99.90;;;;;;5075087;28;20111;-93
2021/05/22 06:33:45;;;;;;;6.22;1.75;;;9.60;99.90;;;;;;5064169;28;20462;-90
2021/05/22 06:36:17;;;;;;;10.07;2.20;;;9.60;99.90;;;;;;5053799;28;20017;-91
2021/05/22 06:38:43;;;;;;;8.80;2.03;;;9.60;99.90;;;;;;5055657;28;20040;-91
2021/05/22 06:41:12;;;;;;;8.38;1.85;;;9.60;99.90;;;;;;5067530;28;20017;-90
2021/05/22 06:43:39;;;;;;;8.07;2.05;;;9.60;99.90;;;;;;5064165;28;20034;-93
2021/05/22 06:48:40;;;;;;;8.88;2.15;;;9.60;99.90;;;;;;5056688;28;20115;-90
2021/05/22 06:51:06;;;;;;;6.97;1.90;;;9.60;99.90;;;;;;5067538;28;20035;-91
2021/05/22 06:53:32;;;;;;;5.53;1.88;;;9.60;99.90;;;;;;5053288;28;20016;-89
2021/05/22 06:55:59;;;;;;;5.43;1.90;;;9.60;99.90;;;;;;5066440;28;20028;-92
2021/05/22 06:58:25;;;;;;;6.97;2.15;;;9.60;99.90;;;;;;5073664;28;20024;-89
2021/05/22 07:00:51;;;;;;;9.75;2.70;;;9.60;99.90;;;;;;5069111;28;20166;-90
2021/05/22 07:03:17;;;;;;;9.00;2.22;;;9.60;99.90;;;;;;5060686;28;20190;-92
2021/05/22 07:05:44;;;;;;;5.63;2.08;;;9.60;99.90;;;;;;5074291;28;20382;-92
2021/05/22 07:08:10;;;;;;;8.07;2.10;;;9.70;99.90;;;;;;5073100;28;20131;-93
2021/05/22 07:10:36;;;;;;;7.45;2.05;;;9.70;99.90;;;;;;5073562;28;20040;-92
2021/05/22 07:13:04;;;;;;;6.82;2.08;;;9.80;99.90;;;;;;5073674;28;20486;-92
2021/05/22 07:15:30;;;;;;;8.05;2.65;;;9.80;99.90;;;;;;5048247;28;20037;-96
2021/05/22 07:17:56;;;;;;;12.15;3.33;;;9.80;99.90;;;;;;5055323;28;20029;-92
2021/05/22 07:20:22;;;;;;;7.93;2.10;;;9.80;99.90;;;;;;5054207;28;20025;-94
2021/05/22 07:22:50;;;;;;;5.85;2.22;;;9.80;99.90;;;;;;5051956;28;20021;-92
2021/05/22 07:25:18;;;;;;;10.48;2.80;;;9.80;99.90;;;;;;5061522;28;20024;-92
2021/05/22 07:27:44;;;;;;;9.55;2.30;;;9.80;99.90;;;;;;5072287;28;20048;-93
2021/05/22 07:30:11;;;;;;;8.48;2.38;;;9.70;99.90;;;;;;5060622;28;20021;-94
2021/05/22 07:32:38;;;;;;;7.38;2.38;;;9.70;99.90;;;;;;5053024;28;20480;-93
2021/05/22 07:35:06;;;;;;;7.78;2.70;;;9.70;99.90;;;;;;5053460;28;20030;-93
2021/05/22 07:37:34;;;;;;;11.25;2.50;;;9.70;99.90;;;;;;5056585;28;20025;-94
2021/05/22 07:40:05;;;;;;;7.05;2.20;;;9.70;99.90;;;;;;5053203;28;20116;-95
2021/05/22 07:42:31;;;;;;;7.40;2.53;;;9.70;99.90;;;;;;5066807;28;20086;-93
2021/05/22 07:44:58;;;;;;;7.28;2.95;;;9.80;99.90;;;;;;5049947;28;20036;-91
2021/05/22 07:47:27;;;;;;;6.45;2.40;;;9.90;99.90;;;;;;5063930;28;20045;-93
2021/05/22 07:49:54;;;;;;;7.80;2.67;;;9.90;99.90;;;;;;5060641;28;20530;-95
2021/05/22 07:52:23;;;;;;;7.95;2.47;;;10.00;99.90;;;;;;5057768;28;20090;-92
2021/05/22 07:54:49;;;;;;;8.60;2.20;;;10.00;99.90;;;;;;5061391;28;20430;-93
2021/05/22 07:57:17;;;;;;;5.90;1.92;;;10.00;99.90;;;;;;5061879;28;20017;-95
2021/05/22 07:59:44;;;;;;;4.60;1.92;;;10.00;99.90;;;;;;5056497;28;20056;-93
2021/05/22 08:02:10;;;;;;;8.65;2.30;;;10.00;99.90;;;;;;5066961;28;20024;-90
2021/05/22 08:04:37;;;;;;;6.20;1.83;;;10.00;99.90;;;;;;5069382;28;20074;-91
2021/05/22 08:07:04;;;;;;;4.85;2.10;;;10.00;99.90;;;;;;5073978;28;20040;-91
2021/05/22 08:09:33;;;;;;;5.57;1.92;;;10.00;99.90;;;;;;5066858;28;20033;-94
2021/05/22 08:12:04;;;;;;;4.95;2.40;;;10.00;99.90;;;;;;5051610;28;20125;-94
2021/05/22 08:14:30;;;;;;;4.70;2.30;;;10.00;99.90;;;;;;5065043;28;20029;-93
2021/05/22 08:16:56;;;;;;;6.07;2.40;;;10.10;99.90;;;;;;5057601;28;20044;-94
2021/05/22 08:19:23;;;;;;;5.05;2.08;;;10.00;99.90;;;;;;5061781;28;20025;-94
2021/05/22 08:21:53;;;;;;;7.03;2.42;;;10.00;99.90;;;;;;5070967;28;20024;-91
2021/05/22 08:24:19;;;;;;;8.32;2.47;;;10.10;99.90;;;;;;5063445;28;20033;-92
2021/05/22 08:26:48;;;;;;;5.10;2.25;;;10.10;99.90;;;;;;5069698;28;20082;-93
2021/05/22 08:29:16;;;;;;;3.55;1.77;;;10.10;99.90;;;;;;5075345;28;20028;-92
2021/05/22 08:31:42;;;;;;;6.53;2.50;;;10.10;99.90;;;;;;5075255;28;20121;-94
2021/05/22 08:34:10;;;;;;;4.50;2.25;;;10.10;99.90;;;;;;5071682;28;20044;-94
2021/05/22 08:36:39;;;;;;;4.43;1.90;;;10.10;99.90;;;;;;5070577;28;20499;-94
2021/05/22 08:39:06;;;;;;;5.50;2.10;;;10.10;99.90;;;;;;5062197;28;20024;-95
2021/05/22 08:41:36;;;;;;;4.43;2.28;;;10.10;99.90;;;;;;5071673;28;20110;-92
2021/05/22 08:44:04;;;;;;;7.90;2.72;;;10.10;99.90;;;;;;5062624;28;20100;-95
2021/05/22 08:46:35;;;;;;;4.90;2.30;;;10.10;99.90;;;;;;5061863;28;20032;-96
2021/05/22 08:49:06;;;;;;;4.15;2.17;;;10.10;99.90;;;;;;5071274;28;20032;-94
2021/05/22 08:51:32;;;;;;;5.82;2.40;;;10.10;99.90;;;;;;5077985;28;20038;-93
2021/05/22 08:54:04;;;;;;;4.70;2.75;;;10.10;99.90;;;;;;5066487;28;20115;-93
2021/05/22 08:56:30;;;;;;;5.13;2.40;;;10.10;99.90;;;;;;5071886;28;20082;-94
2021/05/22 08:58:56;;;;;;;6.72;2.63;;;10.10;99.90;;;;;;5054580;28;20052;-93
2021/05/22 09:01:31;;;;;;;6.03;2.58;;;10.20;99.90;;;;;;5078631;28;20004;-95
2021/05/22 09:03:57;;;;;;;5.55;2.83;;;10.20;99.90;;;;;;5065001;28;20020;-94
2021/05/22 09:06:25;;;;;;;4.75;3.20;;;10.20;99.90;;;;;;5067742;28;20036;-92
2021/05/22 09:09:04;;;;;;;6.90;3.00;;;10.20;99.90;;;;;;5068183;28;20071;-94
2021/05/22 09:11:51;;;;;;;5.57;3.38;;;10.30;99.90;;;;;;5072243;28;20025;-94
2021/05/22 09:14:51;;;;;;;4.78;3.05;;;10.30;99.90;;;;;;5068664;28;20388;-95
2021/05/22 09:17:23;;;;;;;5.80;2.80;;;10.40;99.90;;;;;;5078095;28;20021;-95
2021/05/22 09:20:37;;;;;;;7.03;3.20;;;10.40;99.90;;;;;;5071237;28;20037;-94
2021/05/22 09:23:18;;;;;;;6.97;3.60;;;10.50;99.90;;;;;;5054343;28;20040;-94
2021/05/22 09:25:51;;;;;;;7.85;3.80;;;10.50;99.90;;;;;;5070068;28;20040;-92
2021/05/22 09:28:28;;;;;;;6.43;3.58;;;10.50;99.90;;;;;;5067403;28;20032;-94
2021/05/22 09:30:56;;;;;;;8.05;4.82;;;10.50;99.90;;;;;;5067103;28;20051;-95
2021/05/22 09:33:27;;;;;;;7.07;4.63;;;10.50;99.90;;;;;;5076815;28;20021;-91
2021/05/22 09:36:07;;;;;;;7.22;5.13;;;10.50;99.90;;;;;;5069095;28;20499;-91
2021/05/22 09:38:43;;;;;;;6.53;4.53;;;10.50;99.90;;;;;;5064199;28;20028;-90
2021/05/22 09:41:33;;;;;;;7.47;4.10;;;10.50;99.90;;;;;;5067212;28;20025;-94
2021/05/22 09:44:25;;;;;;;8.60;4.47;;;10.60;99.90;;;;;;5059404;28;20021;-94
2021/05/22 09:46:53;;;;;;;6.95;4.50;;;10.50;99.90;;;;;;5064239;28;20469;-91
2021/05/22 09:49:26;;;;;;;9.55;4.90;;;10.50;99.90;;;;;;5063733;28;20145;-93
2021/05/22 09:52:11;;;;;;;9.43;4.93;;;10.50;99.90;;;;;;5060074;28;20025;-92
2021/05/22 09:54:47;;;;;;;6.93;4.85;;;10.50;99.90;;;;;;5066429;28;20275;-92
2021/05/22 09:57:38;;;;;;;8.85;5.55;;;10.50;99.90;;;;;;5069121;28;20029;-94
2021/05/22 10:00:12;;;;;;;5.85;4.30;;;10.50;99.90;;;;;;5051870;28;20589;-93
2021/05/22 10:02:43;;;;;;;6.22;5.10;;;10.50;99.90;;;;;;5068227;28;20111;-93
2021/05/22 10:05:18;;;;;;;6.93;5.18;;;10.50;99.90;;;;;;5076534;28;20040;-94
2021/05/22 10:07:47;;;;;;;7.80;5.40;;;10.50;99.90;;;;;;5071015;28;20084;-95
2021/05/22 10:10:15;;;;;;;7.00;5.43;;;10.50;99.90;;;;;;5062623;28;20036;-96
2021/05/22 10:12:45;;;;;;;10.35;6.28;;;10.60;99.90;;;;;;5056695;28;20457;-93
2021/05/22 10:15:19;;;;;;;7.90;4.82;;;10.60;99.90;;;;;;5058346;28;20025;-95
2021/05/22 10:17:49;;;;;;;7.25;5.07;;;10.70;99.90;;;;;;5066605;28;20028;-93
2021/05/22 10:20:16;;;;;;;8.95;5.78;;;10.70;99.90;;;;;;5063136;28;20079;-93
2021/05/22 10:22:56;;;;;;;7.78;5.63;;;10.70;99.90;;;;;;5059422;28;20761;-94
2021/05/22 10:25:25;;;;;;;7.05;4.97;;;10.80;99.90;;;;;;5068306;28;20029;-94
2021/05/22 10:27:51;;;;;;;9.40;5.78;;;10.80;99.90;;;;;;5063766;28;20511;-94
2021/05/22 10:30:20;;;;;;;7.75;5.30;;;10.80;99.90;;;;;;5055608;28;20029;-92
2021/05/22 10:32:47;;;;;;;7.85;5.43;;;10.90;99.90;;;;;;5070690;28;20021;-94
2021/05/22 10:35:24;;;;;;;6.93;5.50;;;11.00;99.90;;;;;;5066355;28;20021;-93
2021/05/22 10:38:05;;;;;;;6.75;5.05;;;11.10;99.90;;;;;;5059980;28;20029;-92
2021/05/22 10:40:50;;;;;;;7.82;5.90;;;11.10;99.90;;;;;;5073216;28;20098;-95
2021/05/22 10:43:40;;;;;;;7.65;5.82;;;11.20;99.90;;;;;;5068517;28;20052;-92
2021/05/22 10:46:10;;;;;;;6.78;5.47;;;11.20;99.90;;;;;;5071003;28;20090;-93
2021/05/22 10:48:35;;;;;;;6.70;5.63;;;11.30;99.90;;;;;;5057118;28;20025;-93
2021/05/22 10:51:04;;;;;;;6.10;5.32;;;11.30;99.90;;;;;;5063005;28;20037;-92
2021/05/22 10:53:37;;;;;;;7.72;5.90;;;11.30;99.90;;;;;;5057623;28;20625;-94
2021/05/22 10:56:21;;;;;;;5.93;5.25;;;11.30;99.90;;;;;;5058378;28;20051;-95
2021/05/22 10:59:01;;;;;;;5.40;4.90;;;11.30;99.90;;;;;;5061071;28;20051;-93
2021/05/22 11:01:35;;;;;;;7.20;5.28;;;11.30;99.90;;;;;;5070294;28;20024;-93
2021/05/22 11:04:25;;;;;;;7.60;5.30;;;11.30;99.90;;;;;;5064018;28;20684;-93
2021/05/22 11:07:21;;;;;;;6.35;5.07;;;11.30;99.90;;;;;;5068224;28;20044;-90
2021/05/22 11:09:52;;;;;;;7.10;5.32;;;11.30;99.90;;;;;;5065747;28;20008;-90
2021/05/22 11:12:29;;;;;;;5.85;5.25;;;11.20;99.90;;;;;;5055741;28;20029;-93
2021/05/22 11:14:58;;;;;;;6.60;5.80;;;11.30;99.90;;;;;;5064129;28;20021;-93
2021/05/22 11:17:29;;;;;;;6.50;5.80;;;11.30;99.90;;;;;;5058329;28;20032;-92
2021/05/22 11:20:09;;;;;;;6.28;5.65;;;11.30;99.90;;;;;;5064548;28;20484;-93
2021/05/22 11:22:55;;;;;;;6.43;5.15;;;11.40;99.90;;;;;;5064012;28;20554;-92
2021/05/22 11:25:22;;;;;;;6.78;5.93;;;11.40;99.90;;;;;;5054432;28;20487;-90
2021/05/22 11:27:53;;;;;;;9.15;6.68;;;11.30;99.90;;;;;;5061143;28;20025;-93
2021/05/22 11:30:29;;;;;;;7.63;6.22;;;11.20;99.90;;;;;;5071657;28;20028;-93
2021/05/22 11:33:22;;;;;;;8.77;6.60;;;11.20;99.90;;;;;;5052967;28;20151;-91
2021/05/22 11:36:00;;;;;;;6.60;5.97;;;11.10;99.90;;;;;;5051547;28;20037;-94
2021/05/22 11:38:31;;;;;;;6.43;5.55;;;11.10;99.90;;;;;;5056101;28;20029;-92
2021/05/22 11:41:11;;;;;;;6.95;6.15;;;11.10;99.90;;;;;;5067894;28;20013;-92
2021/05/22 11:43:41;;;;;;;8.00;5.65;;;11.10;99.90;;;;;;5072179;28;20028;-91
2021/05/22 11:46:13;;;;;;;5.57;4.68;;;11.10;99.90;;;;;;5069138;28;20048;-91
2021/05/22 11:48:43;;;;;;;5.63;4.13;;;11.10;99.90;;;;;;5068855;28;20027;-92
2021/05/22 11:51:27;;;;;;;4.68;3.88;;;11.10;99.90;;;;;;5069996;28;20028;-92
2021/05/22 11:54:00;;;;;;;5.40;4.18;;;11.20;99.90;;;;;;5068784;28;20049;-92
2021/05/22 11:56:33;;;;;;;4.28;3.53;;;11.30;99.90;;;;;;5060754;28;20052;-91
2021/05/22 11:59:00;;;;;;;5.55;4.68;;;11.40;99.90;;;;;;5062904;28;20024;-92
2021/05/22 12:01:37;;;;;;;5.55;4.53;;;11.40;99.90;;;;;;5062704;28;20025;-91
2021/05/22 12:04:10;;;;;;;6.85;4.60;;;11.50;99.90;;;;;;5067641;28;20021;-89
2021/05/22 12:06:41;;;;;;;6.25;4.38;;;11.60;99.90;;;;;;5071321;28;20028;-91
2021/05/22 12:09:26;;;;;;;6.03;4.22;;;11.50;99.90;;;;;;5058259;28;20552;-91
2021/05/22 12:12:13;;;;;;;6.82;4.90;;;11.50;99.90;;;;;;5064230;28;20036;-90
2021/05/22 12:14:47;;;;;;;5.47;3.70;;;11.40;99.90;;;;;;5072737;28;20044;-92
2021/05/22 12:17:17;;;;;;;5.93;4.55;;;11.40;99.90;;;;;;5069012;28;20543;-92
2021/05/22 12:19:50;;;;;;;7.10;5.20;;;11.40;99.90;;;;;;5065694;28;20032;-92
2021/05/22 12:22:27;;;;;;;8.10;5.95;;;11.40;99.90;;;;;;5070818;28;20086;-94
2021/05/22 12:25:02;;;;;;;10.02;6.65;;;11.60;99.90;;;;;;5069869;28;20037;-92
2021/05/22 12:27:40;;;;;;;9.43;6.82;;;11.70;99.90;;;;;;5056773;28;20052;-90
2021/05/22 12:30:14;;;;;;;9.13;6.60;;;11.80;99.90;;;;;;5068353;28;20055;-91
2021/05/22 12:32:46;;;;;;;9.60;6.75;;;11.90;99.90;;;;;;5055358;28;20033;-90
2021/05/22 12:35:19;;;;;;;7.28;6.07;;;11.80;99.90;;;;;;5056191;28;20373;-92
2021/05/22 12:37:54;;;;;;;9.60;5.90;;;11.70;99.90;;;;;;5065710;28;20020;-90
2021/05/22 12:40:25;;;;;;;8.23;5.90;;;11.60;99.90;;;;;;5059070;28;20048;-93
2021/05/22 12:42:55;;;;;;;10.13;6.45;;;11.40;99.90;;;;;;5058672;28;20839;-92
2021/05/22 12:45:23;;;;;;;9.32;6.63;;;11.40;99.90;;;;;;5066257;28;20044;-92
2021/05/22 12:47:53;;;;;;;8.82;6.97;;;11.40;99.90;;;;;;5061846;28;20039;-92
2021/05/22 12:50:33;;;;;;;8.82;7.40;;;11.40;99.90;;;;;;5042464;28;20029;-91
2021/05/22 12:53:06;;;;;;;10.32;6.40;;;11.50;99.90;;;;;;5053242;28;20021;-91
2021/05/22 12:55:40;;;;;;;9.20;6.63;;;11.50;99.90;;;;;;5066625;28;20028;-94
2021/05/22 12:58:27;;;;;;;8.73;6.68;;;11.40;99.90;;;;;;5065861;28;20028;-92
2021/05/22 13:00:55;;;;;;;9.57;6.22;;;11.40;99.90;;;;;;5056838;28;20074;-91
2021/05/22 13:03:47;;;;;;;6.88;5.47;;;11.40;99.90;;;;;;5061621;28;20037;-90
2021/05/22 13:06:36;;;;;;;9.60;6.75;;;11.50;99.90;;;;;;5060659;28;20032;-90
2021/05/22 13:09:09;;;;;;;9.75;7.93;;;11.50;99.90;;;;;;5051762;28;20060;-91
2021/05/22 13:11:36;;;;;;;12.15;8.02;;;11.50;99.90;;;;;;5068804;28;20452;-90